COOK1: Arkansas River Nr Coolidge, KS

                                SHEF ID:       COOK1     ARKANSAS R NR COOLIDGE, KS
STATION TYPE:
Regulating: Stage = 8.00, Flow = 2028

PRECIP STAGE STAGE(2) RIV-FLOW WTR-TEMP CONDUCT BAT-LOAD
in ft ft cfs F umho/cm volt
Ccp-Rev Ccp-Rev Ccp-Rev Ccp-Rev Ccp-Rev Ccp-Rev Ccp-Rev
(America/Chicago)
08/05 00:00 0.00 4.54 4.71 376 78.37 3285 12.95
08/05 01:00 0.00 4.55 4.70 378 77.72 3283 12.95
08/05 02:00 0.00 4.54 4.67 376 77.04 3287 12.89
08/05 03:00 0.00 4.52 4.69 370 76.35 3272 12.89
08/05 04:00 0.00 4.55 4.67 378 75.72 3262 12.89
08/05 05:00 0.00 4.54 4.70 376 74.95 3260 12.89
08/05 06:00 0.00 4.54 4.71 376 74.17 3256 12.83
08/05 07:00 0.00 4.54 4.69 376 73.42 3258 12.83
08/05 08:00 0.00 4.55 4.72 378 72.79 3262 12.83
08/05 09:00 0.00 4.57 4.73 384 72.54 3258 12.89
08/05 10:00 0.00 4.57 4.75 384 72.86 3256 13.07
08/05 11:00 0.00 4.54 4.74 376 73.62 3262 13.59
08/05 12:00 0.00 4.57 4.76 384 74.77 3278 13.71
08/05 13:00 0.00 4.57 4.73 384 76.17 3290 13.71
08/05 14:00 0.00 4.55 4.72 378 77.68 3303 13.71
08/05 15:00 0.00 4.52 4.72 370 79.12 3305 13.71
08/05 16:00 0.00 4.52 4.69 370 80.33 3317 13.65
08/05 17:00 0.00 4.46 4.65 355 81.25 3343 13.48
08/05 18:00 0.00 4.44 4.62 350 81.91 3364 13.36
08/05 19:00 0.00 4.38 4.56 335 81.99 3404 13.18
08/05 20:00 0.00 4.38 4.54 335 81.54 3456 13.18
08/05 21:00 0.00 4.34 4.49 326 81.00 3510 13.07
08/05 22:00 0.00 4.31 4.45 318 80.35 3564 13.00
08/05 23:00 ---- ---- ---- ---- ---- ---- ----
Data processed at Tue 06Aug2024 04:30 GMT

Parsing this webpage?

Checkout our new Data API! CWMSDataAPI (CDA)

Timeseries IDs (TSIDs)

TSIDs used from left to right in the data table
COOL.Precip-Inc.Total.1Hour.1Hour.Ccp-Rev
COOL.Stage.Inst.1Hour.0.Ccp-Rev
COOL.Stage-Alt.Inst.1Hour.0.Ccp-Rev
COOL.Flow.Inst.1Hour.0.Ccp-Rev
COOL.Temp-Water.Inst.1Hour.0.Ccp-Rev
COOL.Cond.Inst.1Hour.0.Ccp-Rev
COOL.Volt-Battery Load.Inst.1Hour.0.Ccp-Rev

                            

All information presented herein is the property of the government of the United States of America and may be revised or deleted at any time without prior notice. Dissemination of this information without the expressed written consent of the Public Affairs Office, Tulsa District U.S. Army Corps of Engineers is strictly prohibited. These data are gathered electronically and, as presented, have NOT undergone any form of quality control. These data are NOT guaranteed to be valid or correct.